Time;durP1;ratioP1;P1;durP2;ratioP2;P2;SDS_P1;SDS_P2;PMS_P1;PMS_P2;Temp;Humidity;BMP_temperature;BMP_pressure;BME280_temperature;BME280_humidity;BME280_pressure;Samples;Min_cycle;Max_cycle;Signal;HPM_P1;HPM_P2
2022/01/03 00:01:08;;;;;;;3.55;0.82;;;15.00;51.70;;;;;;5055351;28;20145;-66
2022/01/03 00:03:34;;;;;;;0.75;0.50;;;14.90;55.60;;;;;;5072934;28;20078;-68
2022/01/03 00:06:02;;;;;;;1.55;0.60;;;14.40;54.70;;;;;;5072631;28;20058;-68
2022/01/03 00:08:29;;;;;;;3.55;0.80;;;14.50;26.00;;;;;;5072565;28;20546;-66
2022/01/03 00:10:57;;;;;;;2.50;0.60;;;14.40;56.00;;;;;;5073730;28;20074;-67
2022/01/03 00:13:24;;;;;;;3.42;0.60;;;14.80;55.30;;;;;;5055178;28;20072;-66
2022/01/03 00:15:52;;;;;;;0.43;0.40;;;14.50;56.40;;;;;;5041701;28;20173;-67
2022/01/03 00:18:19;;;;;;;0.60;0.50;;;14.50;54.20;;;;;;5053267;28;20406;-66
2022/01/03 00:20:57;;;;;;;2.20;0.70;;;14.40;27.00;;;;;;5055056;28;20070;-65
2022/01/03 00:23:27;;;;;;;2.25;1.10;;;14.10;27.50;;;;;;5055050;28;20076;-66
2022/01/03 00:26:02;;;;;;;4.32;2.50;;;14.50;56.30;;;;;;5054086;28;20074;-66
2022/01/03 00:28:28;;;;;;;3.17;2.13;;;;;;;;;;5054633;28;20575;-66
2022/01/03 00:30:56;;;;;;;;;;;14.20;27.40;;;;;;5043707;28;20544;-66
2022/01/03 00:33:22;;;;;;;;;;;14.10;29.00;;;;;;5055246;28;19947;-66
2022/01/03 00:35:58;;;;;;;4.00;2.25;;;14.00;27.60;;;;;;5054578;28;19958;-67
2022/01/03 00:38:27;;;;;;;5.22;1.35;;;13.70;27.30;;;;;;5043601;28;20070;-66
2022/01/03 00:40:54;;;;;;;1.75;0.85;;;13.90;54.40;;;;;;5053963;28;20167;-66
2022/01/03 00:43:21;;;;;;;2.00;1.08;;;13.70;54.90;;;;;;5054672;28;20174;-65
2022/01/03 00:45:50;;;;;;;5.43;1.42;;;13.60;57.50;;;;;;5071477;28;20110;-64
2022/01/03 00:48:17;;;;;;;2.40;1.45;;;13.00;52.10;;;;;;5053288;28;20510;-62
2022/01/03 00:50:43;;;;;;;12.70;2.17;;;13.30;55.20;;;;;;5051922;28;20100;-64
2022/01/03 00:53:10;;;;;;;2.95;1.50;;;13.40;52.60;;;;;;5051123;28;20078;-63
2022/01/03 00:55:41;;;;;;;10.13;2.33;;;13.70;60.60;;;;;;5053024;28;20117;-64
2022/01/03 00:58:10;;;;;;;7.25;1.83;;;13.30;58.70;;;;;;5053251;28;20080;-65
2022/01/03 01:00:39;;;;;;;6.70;2.03;;;13.20;32.50;;;;;;5054663;28;20075;-63
2022/01/03 01:03:12;;;;;;;6.25;2.00;;;13.10;59.00;;;;;;5052833;28;20584;-65
2022/01/03 01:05:48;;;;;;;10.00;2.13;;;13.00;32.90;;;;;;5071716;28;20084;-65
2022/01/03 01:08:20;;;;;;;4.95;2.10;;;13.00;33.70;;;;;;5053492;28;20590;-65
2022/01/03 01:10:50;;;;;;;8.27;1.80;;;13.10;37.40;;;;;;5052326;28;20080;-65
2022/01/03 01:13:17;;;;;;;5.88;1.65;;;12.90;33.70;;;;;;5052724;28;20083;-67
2022/01/03 01:15:43;;;;;;;6.22;1.85;;;12.80;33.80;;;;;;5048787;28;20075;-67
2022/01/03 01:18:10;;;;;;;8.98;2.00;;;12.70;34.30;;;;;;5051903;28;20081;-66
2022/01/03 01:20:42;;;;;;;5.60;1.60;;;12.70;34.50;;;;;;5035547;28;20096;-65
2022/01/03 01:23:09;;;;;;;5.35;1.77;;;12.60;34.90;;;;;;5049613;28;20068;-68
2022/01/03 01:28:05;;;;;;;10.13;2.28;;;12.50;46.70;;;;;;5070269;28;20080;-65
2022/01/03 01:30:33;;;;;;;7.00;1.90;;;12.40;36.40;;;;;;5051537;28;20119;-65
2022/01/03 01:33:05;;;;;;;8.50;2.08;;;12.30;36.20;;;;;;5048020;28;20069;-65
2022/01/03 01:35:50;;;;;;;10.13;2.10;;;12.20;36.20;;;;;;5050742;28;20111;-64
2022/01/03 01:38:19;;;;;;;8.82;2.00;;;12.50;69.20;;;;;;5068956;28;20075;-65
2022/01/03 01:40:54;;;;;;;7.00;2.20;;;12.10;37.30;;;;;;5051709;28;20072;-67
2022/01/03 01:43:28;;;;;;;12.35;2.85;;;12.00;37.40;;;;;;5051885;28;20104;-64
2022/01/03 01:45:56;;;;;;;8.82;2.10;;;11.90;37.90;;;;;;5033994;28;20122;-67
2022/01/03 01:48:24;;;;;;;12.05;3.20;;;11.80;38.40;;;;;;5051214;28;20076;-65
2022/01/03 01:50:52;;;;;;;8.20;3.10;;;11.80;38.10;;;;;;5051436;28;20123;-66
2022/01/03 01:53:26;;;;;;;15.65;3.53;;;11.70;38.30;;;;;;5051032;28;20069;-64
2022/01/03 01:55:55;;;;;;;18.40;3.85;;;11.60;38.70;;;;;;5067934;28;20076;-65
2022/01/03 01:58:29;;;;;;;18.27;3.83;;;11.60;39.20;;;;;;5052430;28;20164;-66
2022/01/03 02:01:03;;;;;;;17.13;4.78;;;11.10;53.00;;;;;;5038301;28;20076;-64
2022/01/03 02:03:32;;;;;;;18.67;4.85;;;11.80;75.30;;;;;;5049207;28;20103;-65
2022/01/03 02:06:17;;;;;;;13.68;5.53;;;11.40;81.50;;;;;;5045830;28;20141;-64
2022/01/03 02:09:03;;;;;;;16.15;6.18;;;11.40;39.70;;;;;;5050598;28;20524;-66
2022/01/03 02:11:49;;;;;;;22.98;8.77;;;10.90;44.70;;;;;;5051915;28;20463;-66
2022/01/03 02:14:16;;;;;;;18.10;8.73;;;11.20;41.50;;;;;;5045655;28;20173;-65
2022/01/03 02:16:44;;;;;;;22.10;9.00;;;11.20;78.40;;;;;;5051188;28;20152;-68
2022/01/03 02:19:13;;;;;;;22.67;10.05;;;11.00;45.10;;;;;;5051553;28;20539;-67
2022/01/03 02:21:39;;;;;;;24.55;10.50;;;11.10;46.50;;;;;;5051212;28;20076;-67
2022/01/03 02:24:07;;;;;;;26.17;10.73;;;11.20;47.80;;;;;;5053334;28;20099;-67
2022/01/03 02:26:34;;;;;;;26.85;10.15;;;10.80;43.10;;;;;;5051175;28;20058;-66
2022/01/03 02:29:01;;;;;;;25.63;11.50;;;;;;;;;;5068849;28;20417;-66
2022/01/03 02:31:27;;;;;;;25.13;11.45;;;11.00;40.20;;;;;;5051598;28;20056;-65
2022/01/03 02:33:53;;;;;;;;;;;11.00;41.10;;;;;;5050915;28;20069;-65
2022/01/03 02:36:20;;;;;;;32.30;11.90;;;11.00;46.50;;;;;;5050930;28;20329;-64
2022/01/03 02:38:47;;;;;;;27.40;11.98;;;10.90;41.80;;;;;;5050424;28;20070;-64
2022/01/03 02:41:13;;;;;;;;;;;10.80;43.30;;;;;;5051234;28;20081;-65
2022/01/03 02:43:39;;;;;;;34.75;14.15;;;11.10;58.90;;;;;;5051521;28;20319;-66
2022/01/03 02:46:06;;;;;;;26.73;13.20;;;10.70;86.70;;;;;;5048638;28;20077;-65
2022/01/03 02:48:32;;;;;;;38.38;14.30;;;10.60;43.60;;;;;;5051613;28;20131;-59
2022/01/03 02:50:58;;;;;;;;;;;10.60;42.00;;;;;;5049162;28;20425;-65
2022/01/03 02:53:25;;;;;;;32.72;14.82;;;10.60;42.60;;;;;;5054994;28;19980;-65
2022/01/03 02:55:51;;;;;;;;;;;10.60;42.10;;;;;;5073760;28;20085;-63
2022/01/03 02:58:17;;;;;;;38.17;14.18;;;10.50;42.10;;;;;;5073927;28;19976;-65
2022/01/03 03:00:50;;;;;;;;;;;10.50;43.20;;;;;;5055476;28;20179;-65
2022/01/03 03:03:19;;;;;;;32.35;15.05;;;10.50;42.70;;;;;;5038726;28;19973;-67
2022/01/03 03:05:45;;;;;;;42.53;15.55;;;10.30;42.30;;;;;;5053852;28;20523;-65
2022/01/03 03:08:12;;;;;;;;;;;10.30;42.30;;;;;;5055461;28;20099;-64
2022/01/03 03:10:39;;;;;;;50.63;22.92;;;10.40;42.80;;;;;;5071774;28;19964;-61
2022/01/03 03:13:06;;;;;;;54.80;23.13;;;10.40;42.50;;;;;;5072807;28;20433;-67
2022/01/03 03:15:34;;;;;;;50.40;21.33;;;10.30;81.20;;;;;;5072099;28;20073;-68
2022/01/03 03:18:02;;;;;;;50.10;21.23;;;10.20;43.30;;;;;;5053851;28;20117;-66
2022/01/03 03:20:31;;;;;;;49.80;21.60;;;10.30;42.60;;;;;;5054926;28;20160;-66
2022/01/03 03:23:05;;;;;;;46.25;18.25;;;10.10;79.00;;;;;;5054417;28;20076;-65
2022/01/03 03:25:34;;;;;;;42.17;19.20;;;10.20;44.10;;;;;;5054584;28;20183;-65
2022/01/03 03:28:18;;;;;;;38.70;18.77;;;10.20;42.80;;;;;;5054466;28;20448;-65
2022/01/03 03:30:47;;;;;;;43.83;16.85;;;10.10;81.70;;;;;;5071463;28;20080;-65
2022/01/03 03:33:19;;;;;;;39.92;18.52;;;10.10;46.30;;;;;;5071892;28;20067;-64
2022/01/03 03:35:48;;;;;;;42.75;18.08;;;10.00;43.40;;;;;;5070960;28;20089;-67
2022/01/03 03:38:14;;;;;;;49.28;21.83;;;9.90;43.30;;;;;;5054175;28;20081;-66
2022/01/03 03:40:45;;;;;;;47.17;20.60;;;9.90;43.50;;;;;;5036215;28;20147;-65
2022/01/03 03:43:12;;;;;;;47.17;21.02;;;10.00;75.10;;;;;;5070298;28;20069;-65
2022/01/03 03:45:39;;;;;;;52.17;22.02;;;9.80;48.30;;;;;;5071201;28;20085;-64
2022/01/03 03:48:05;;;;;;;;;;;9.80;50.30;;;;;;5054193;28;20089;-68
2022/01/03 03:50:32;;;;;;;58.75;25.90;;;9.80;50.30;;;;;;5054436;28;19950;-66
2022/01/03 03:52:58;;;;;;;73.25;25.30;;;9.70;44.00;;;;;;5053734;28;20447;-69
2022/01/03 03:55:25;;;;;;;65.60;26.02;;;9.70;44.90;;;;;;5053443;28;20087;-67
2022/01/03 03:57:51;;;;;;;52.88;24.00;;;9.60;44.40;;;;;;5054895;28;20126;-67
2022/01/03 04:00:18;;;;;;;;;;;9.50;44.70;;;;;;5069843;28;20096;-66
2022/01/03 04:02:45;;;;;;;54.70;22.60;;;9.50;45.00;;;;;;5053450;28;19972;-65
2022/01/03 04:05:12;;;;;;;54.45;21.77;;;9.50;45.60;;;;;;5071613;28;20215;-67
2022/01/03 04:07:38;;;;;;;55.67;20.15;;;9.50;45.20;;;;;;5052620;28;20486;-67
2022/01/03 04:10:07;;;;;;;42.45;18.20;;;9.50;45.00;;;;;;5053117;28;20076;-66
2022/01/03 04:12:33;;;;;;;36.42;17.30;;;9.40;44.50;;;;;;5071340;28;20068;-64
2022/01/03 04:14:59;;;;;;;;;;;9.40;44.60;;;;;;5053376;28;20112;-65
2022/01/03 04:17:25;;;;;;;38.42;17.40;;;9.40;44.00;;;;;;5036903;28;20081;-65
2022/01/03 04:19:52;;;;;;;39.28;16.77;;;9.40;44.20;;;;;;5070366;28;20069;-66
2022/01/03 04:22:18;;;;;;;;;;;9.40;44.10;;;;;;5052227;28;20085;-68
2022/01/03 04:24:44;;;;;;;47.08;15.80;;;9.30;43.90;;;;;;5053246;28;19995;-64
2022/01/03 04:27:10;;;;;;;;;;;9.30;44.10;;;;;;5071223;28;20080;-65
2022/01/03 04:29:37;;;;;;;40.15;15.18;;;9.40;45.10;;;;;;5047699;28;19957;-67
2022/01/03 04:32:03;;;;;;;;;;;9.40;44.40;;;;;;5071613;28;20096;-64
2022/01/03 04:34:29;;;;;;;36.72;16.27;;;9.40;44.20;;;;;;5052649;28;20010;-65
2022/01/03 04:36:56;;;;;;;37.95;14.77;;;9.40;44.30;;;;;;5053095;28;20508;-66
2022/01/03 04:39:22;;;;;;;;;;;9.40;43.90;;;;;;5052908;28;20485;-64
2022/01/03 04:41:48;;;;;;;39.50;14.15;;;9.40;44.00;;;;;;5053463;28;19963;-65
2022/01/03 04:44:15;;;;;;;42.85;15.77;;;9.40;44.10;;;;;;5052568;28;20093;-64
2022/01/03 04:46:41;;;;;;;;;;;9.40;44.60;;;;;;5053567;28;21037;-65
2022/01/03 04:49:08;;;;;;;45.38;17.17;;;9.30;44.50;;;;;;5052508;28;19964;-66
2022/01/03 04:51:36;;;;;;;40.78;16.63;;;9.30;45.70;;;;;;5029229;28;20508;-65
2022/01/03 04:54:03;;;;;;;38.95;16.58;;;9.30;45.30;;;;;;5051957;28;20101;-68
2022/01/03 04:56:30;;;;;;;40.95;19.23;;;9.20;45.10;;;;;;5052841;28;20167;-64
2022/01/03 04:58:57;;;;;;;37.83;18.35;;;9.10;45.30;;;;;;5052455;28;20590;-67
2022/01/03 05:01:24;;;;;;;46.42;17.83;;;9.00;45.60;;;;;;5052230;28;20567;-67
2022/01/03 05:03:51;;;;;;;44.70;20.00;;;9.00;45.40;;;;;;5052611;28;20128;-65
2022/01/03 05:06:18;;;;;;;46.47;18.75;;;9.00;45.20;;;;;;5052372;28;20074;-65
2022/01/03 05:08:45;;;;;;;53.03;18.50;;;8.90;45.20;;;;;;5052450;28;20088;-67
2022/01/03 05:11:12;;;;;;;57.60;19.35;;;8.90;44.80;;;;;;5049966;28;20555;-68
2022/01/03 05:13:38;;;;;;;50.47;18.70;;;8.90;44.50;;;;;;5052238;28;20104;-65
2022/01/03 05:16:05;;;;;;;;;;;8.80;43.80;;;;;;5052480;28;20112;-65
2022/01/03 05:18:31;;;;;;;59.13;23.13;;;8.80;43.60;;;;;;5051182;28;19979;-65
2022/01/03 05:20:58;;;;;;;43.70;15.85;;;8.80;43.30;;;;;;5052176;28;20601;-66
2022/01/03 05:23:24;;;;;;;40.50;13.02;;;9.10;79.50;;;;;;5051323;28;20077;-67
2022/01/03 05:25:51;;;;;;;;;;;8.80;46.60;;;;;;5052805;28;20073;-66
2022/01/03 05:28:17;;;;;;;21.73;8.48;;;9.00;45.50;;;;;;5069324;28;19969;-65
2022/01/03 05:30:44;;;;;;;19.27;7.85;;;8.80;40.10;;;;;;5068766;28;20072;-66
2022/01/03 05:33:11;;;;;;;24.70;6.97;;;8.70;40.40;;;;;;5051984;28;20417;-66
2022/01/03 05:35:38;;;;;;;17.48;6.28;;;8.70;40.60;;;;;;5035393;28;20104;-66
2022/01/03 05:38:04;;;;;;;;;;;8.80;40.50;;;;;;5069500;28;20598;-65
2022/01/03 05:40:30;;;;;;;13.48;4.35;;;8.70;40.20;;;;;;5068984;28;20016;-66
2022/01/03 05:42:56;;;;;;;;;;;8.80;40.50;;;;;;5052864;28;20073;-68
2022/01/03 05:45:23;;;;;;;11.93;3.55;;;8.80;40.60;;;;;;5068805;28;20486;-66
2022/01/03 05:47:49;;;;;;;12.27;3.58;;;8.80;40.20;;;;;;5052045;28;20091;-66
2022/01/03 05:50:16;;;;;;;;;;;8.70;40.10;;;;;;5052686;28;20085;-68
2022/01/03 05:52:43;;;;;;;12.53;3.67;;;8.70;39.90;;;;;;5052614;28;20005;-65
2022/01/03 05:55:09;;;;;;;12.48;3.92;;;8.60;40.10;;;;;;5069120;28;20325;-67
2022/01/03 05:57:36;;;;;;;6.18;2.90;;;8.70;40.20;;;;;;5070355;28;20520;-68
2022/01/03 06:00:06;;;;;;;11.05;3.28;;;8.70;39.80;;;;;;5068876;28;20096;-64
2022/01/03 06:02:37;;;;;;;6.93;3.08;;;8.50;39.60;;;;;;5069285;28;20092;-64
2022/01/03 06:05:06;;;;;;;10.98;2.67;;;8.60;40.40;;;;;;5051545;28;20101;-67
2022/01/03 06:07:32;;;;;;;12.30;3.53;;;8.60;39.40;;;;;;5051465;28;20084;-67
2022/01/03 06:09:58;;;;;;;;;;;8.40;38.90;;;;;;5031714;28;20180;-66
2022/01/03 06:12:25;;;;;;;11.45;3.33;;;8.50;38.80;;;;;;5069627;28;19960;-69
2022/01/03 06:14:51;;;;;;;;;;;8.40;38.20;;;;;;5068318;28;20567;-67
2022/01/03 06:17:19;;;;;;;9.27;3.20;;;8.30;38.30;;;;;;5051096;28;20459;-65
2022/01/03 06:19:47;;;;;;;11.23;3.10;;;8.30;37.60;;;;;;5050892;28;20077;-64
2022/01/03 06:22:13;;;;;;;9.57;2.78;;;8.30;37.50;;;;;;5049535;28;20158;-61
2022/01/03 06:24:40;;;;;;;;;;;8.30;37.40;;;;;;5051055;28;20096;-68
2022/01/03 06:27:13;;;;;;;8.93;2.42;;;8.30;36.40;;;;;;5051421;28;20071;-66
2022/01/03 06:29:51;;;;;;;7.10;2.22;;;8.30;36.40;;;;;;5034558;28;20084;-62
2022/01/03 06:32:17;;;;;;;7.68;2.35;;;8.20;36.50;;;;;;5050393;28;20603;-65
2022/01/03 06:34:44;;;;;;;6.10;2.00;;;8.20;36.70;;;;;;5051090;28;20166;-66
2022/01/03 06:37:10;;;;;;;7.90;2.40;;;8.20;37.00;;;;;;5068826;28;20069;-65
2022/01/03 06:39:36;;;;;;;;;;;8.10;36.80;;;;;;5068533;28;20156;-66
2022/01/03 06:42:03;;;;;;;8.27;2.75;;;8.10;36.40;;;;;;5050772;28;20047;-65
2022/01/03 06:44:30;;;;;;;10.27;3.05;;;8.10;36.30;;;;;;5052251;28;20088;-66
2022/01/03 06:46:56;;;;;;;;;;;8.20;36.40;;;;;;5054420;28;20135;-67
2022/01/03 06:49:22;;;;;;;11.00;3.22;;;8.10;36.70;;;;;;5050775;28;19957;-67
2022/01/03 06:51:48;;;;;;;;;;;8.20;37.00;;;;;;5051920;28;21441;-64
2022/01/03 06:54:15;;;;;;;9.43;2.50;;;8.30;50.90;;;;;;5068107;28;19963;-64
2022/01/03 06:56:42;;;;;;;8.02;2.85;;;8.20;37.70;;;;;;5049516;28;20094;-65
2022/01/03 06:59:09;;;;;;;8.20;2.28;;;8.20;38.60;;;;;;5051420;28;20092;-66
2022/01/03 07:01:36;;;;;;;11.50;2.55;;;8.20;40.40;;;;;;5051365;28;20092;-63
2022/01/03 07:04:03;;;;;;;6.07;2.42;;;8.10;40.10;;;;;;5067300;28;20151;-66
2022/01/03 07:06:30;;;;;;;6.43;2.40;;;8.10;39.10;;;;;;5069294;28;20486;-65
2022/01/03 07:08:56;;;;;;;7.97;2.20;;;8.10;39.70;;;;;;5051004;28;20104;-65
2022/01/03 07:11:22;;;;;;;;;;;8.10;39.10;;;;;;5051153;28;20079;-64
2022/01/03 07:13:53;;;;;;;7.38;2.67;;;7.90;41.60;;;;;;5050051;28;19960;-65
2022/01/03 07:19:06;;;;;;;6.00;2.40;;;7.90;39.30;;;;;;5052713;28;20553;-64
2022/01/03 07:21:34;;;;;;;9.55;2.92;;;7.90;38.40;;;;;;5066947;28;20069;-67
2022/01/03 07:24:01;;;;;;;12.45;2.88;;;7.90;38.20;;;;;;5049711;28;20164;-66
2022/01/03 07:26:28;;;;;;;5.07;2.45;;;7.90;38.10;;;;;;5046995;28;20069;-64
2022/01/03 07:28:55;;;;;;;8.77;2.75;;;7.90;78.60;;;;;;5048958;28;20077;-65
2022/01/03 07:31:22;;;;;;;10.77;3.20;;;7.90;38.10;;;;;;5050102;28;20199;-66
2022/01/03 07:33:48;;;;;;;8.10;3.50;;;7.90;38.30;;;;;;5051123;28;20074;-68
2022/01/03 07:36:15;;;;;;;;;;;7.80;38.30;;;;;;5054439;28;20085;-68
2022/01/03 07:38:46;;;;;;;11.90;4.07;;;7.50;38.10;;;;;;5053768;28;19973;-65
2022/01/03 07:41:14;;;;;;;14.52;4.30;;;7.60;40.90;;;;;;5051845;28;20097;-65
2022/01/03 07:43:41;;;;;;;9.63;3.80;;;7.70;38.50;;;;;;5054550;28;20065;-65
2022/01/03 07:46:07;;;;;;;;;;;7.60;38.30;;;;;;5050340;28;20537;-63
2022/01/03 07:48:33;;;;;;;13.45;3.80;;;7.60;41.30;;;;;;5070876;28;19964;-66
2022/01/03 07:50:59;;;;;;;11.07;3.10;;;7.50;78.70;;;;;;5053754;28;20166;-64
2022/01/03 07:53:27;;;;;;;;;;;7.70;39.30;;;;;;5053601;28;20483;-64
2022/01/03 07:55:53;;;;;;;8.27;2.58;;;7.70;39.10;;;;;;5053169;28;19957;-66
2022/01/03 07:58:19;;;;;;;;;;;7.60;38.70;;;;;;5053724;28;20111;-64
2022/01/03 08:00:46;;;;;;;5.63;2.10;;;7.60;41.20;;;;;;5060372;28;19961;-63
2022/01/03 08:03:12;;;;;;;7.15;2.13;;;7.50;39.00;;;;;;5053518;28;20114;-66
2022/01/03 08:05:38;;;;;;;;;;;7.30;43.00;;;;;;5053837;28;20452;-63
2022/01/03 08:08:09;;;;;;;11.30;1.98;;;7.50;43.30;;;;;;5052026;28;19957;-66
2022/01/03 08:10:39;;;;;;;6.97;1.85;;;7.50;38.00;;;;;;5050505;28;20073;-66
2022/01/03 08:13:05;;;;;;;6.82;1.70;;;7.90;77.90;;;;;;5053729;28;20119;-64
2022/01/03 08:15:32;;;;;;;4.45;1.65;;;7.40;43.60;;;;;;5070521;28;20114;-64
2022/01/03 08:17:58;;;;;;;;;;;7.40;37.90;;;;;;5054078;28;20108;-65
2022/01/03 08:20:25;;;;;;;9.80;2.55;;;7.20;37.50;;;;;;5069893;28;20022;-65
2022/01/03 08:22:52;;;;;;;8.80;2.42;;;7.20;38.20;;;;;;5052973;28;20120;-64
2022/01/03 08:25:19;;;;;;;8.82;2.50;;;7.20;38.70;;;;;;5070774;28;20556;-65
2022/01/03 08:27:45;;;;;;;;;;;7.20;39.40;;;;;;5052267;28;20493;-66
2022/01/03 08:30:11;;;;;;;5.97;1.70;;;7.20;39.00;;;;;;5070575;28;19961;-66
2022/01/03 08:32:38;;;;;;;6.90;1.65;;;6.80;42.10;;;;;;5052780;28;20511;-63
2022/01/03 08:35:05;;;;;;;5.80;1.30;;;7.00;39.00;;;;;;5070276;28;20551;-64
2022/01/03 08:37:31;;;;;;;4.35;1.48;;;7.10;39.20;;;;;;5052647;28;20586;-63
2022/01/03 08:40:00;;;;;;;;;;;7.10;38.80;;;;;;5052773;28;20079;-63
2022/01/03 08:42:26;;;;;;;5.13;1.00;;;6.90;58.90;;;;;;5052463;28;20545;-65
2022/01/03 08:44:52;;;;;;;;;;;7.10;39.10;;;;;;5053978;28;20089;-64
2022/01/03 08:47:18;;;;;;;3.42;1.17;;;7.10;39.20;;;;;;5047623;28;20022;-64
2022/01/03 08:49:45;;;;;;;5.05;1.30;;;7.10;39.40;;;;;;5052606;28;20589;-64
2022/01/03 08:52:11;;;;;;;;;;;7.10;39.50;;;;;;5053262;28;20421;-65
2022/01/03 08:54:37;;;;;;;4.22;1.23;;;7.10;39.60;;;;;;5050863;28;20034;-64
2022/01/03 08:57:03;;;;;;;;;;;7.10;39.40;;;;;;5070731;28;20246;-66
2022/01/03 08:59:30;;;;;;;4.85;1.17;;;7.10;55.80;;;;;;5051672;28;19956;-64
2022/01/03 09:01:56;;;;;;;;;;;7.00;39.80;;;;;;5069878;28;20084;-65
2022/01/03 09:04:22;;;;;;;4.63;1.13;;;7.00;40.00;;;;;;5063236;28;19980;-66
2022/01/03 09:06:50;;;;;;;3.60;1.08;;;7.00;40.00;;;;;;5069696;28;20070;-65
2022/01/03 09:09:16;;;;;;;5.63;1.10;;;7.00;40.40;;;;;;5069513;28;20077;-64
2022/01/03 09:11:43;;;;;;;10.30;1.50;;;6.90;40.50;;;;;;5050550;28;20076;-65
2022/01/03 09:14:09;;;;;;;7.43;1.80;;;6.80;40.30;;;;;;5052563;28;20072;-65
2022/01/03 09:16:35;;;;;;;;;;;6.80;40.50;;;;;;5052104;28;20127;-64
2022/01/03 09:19:02;;;;;;;14.07;1.95;;;6.90;41.20;;;;;;5052355;28;19972;-65
2022/01/03 09:21:29;;;;;;;5.40;2.03;;;6.90;41.50;;;;;;5067599;28;20092;-69
2022/01/03 09:24:17;;;;;;;6.45;2.13;;;6.80;41.80;;;;;;5068205;28;20062;-66
2022/01/03 09:29:26;;;;;;;10.35;2.75;;;6.70;43.20;;;;;;5054255;28;20080;-68
2022/01/03 09:31:52;;;;;;;;;;;6.60;43.10;;;;;;5052029;28;20073;-66
2022/01/03 09:34:18;;;;;;;4.85;1.85;;;6.60;43.40;;;;;;5052034;28;20374;-66
2022/01/03 09:36:45;;;;;;;10.88;2.30;;;6.60;43.40;;;;;;5051874;28;20127;-66
2022/01/03 09:39:11;;;;;;;;;;;6.60;43.50;;;;;;5052144;28;20529;-61
2022/01/03 09:41:52;;;;;;;6.40;2.25;;;6.60;71.40;;;;;;5051503;28;19957;-67
2022/01/03 09:44:20;;;;;;;11.68;1.90;;;6.60;44.20;;;;;;5052061;28;20092;-65
2022/01/03 09:46:48;;;;;;;7.05;1.70;;;6.20;74.30;;;;;;5033646;28;20549;-67
2022/01/03 09:49:17;;;;;;;11.32;2.00;;;6.50;51.10;;;;;;5051718;28;20107;-66
2022/01/03 09:51:44;;;;;;;15.40;2.00;;;6.50;44.50;;;;;;5068336;28;20061;-66
2022/01/03 09:54:14;;;;;;;6.40;1.70;;;6.50;43.70;;;;;;5045215;28;20065;-66
2022/01/03 09:56:42;;;;;;;9.57;2.58;;;6.50;44.40;;;;;;5044493;28;20111;-64
2022/01/03 09:59:14;;;;;;;10.00;2.47;;;6.40;45.00;;;;;;5049725;28;20065;-67
2022/01/03 10:01:41;;;;;;;7.47;2.10;;;6.30;45.20;;;;;;5050183;28;20069;-67
2022/01/03 10:04:10;;;;;;;6.93;2.10;;;6.30;45.30;;;;;;5051443;28;20322;-65
2022/01/03 10:06:43;;;;;;;9.60;2.33;;;6.30;45.20;;;;;;5052087;28;20138;-66
2022/01/03 10:09:10;;;;;;;15.90;2.72;;;6.20;44.80;;;;;;5051414;28;20081;-65
2022/01/03 10:11:37;;;;;;;8.05;2.60;;;6.30;45.20;;;;;;5068488;28;20129;-68
2022/01/03 10:14:04;;;;;;;11.27;2.92;;;6.30;45.40;;;;;;5051652;28;20065;-68
2022/01/03 10:16:30;;;;;;;;;;;6.30;45.50;;;;;;5050926;28;20194;-66
2022/01/03 10:18:58;;;;;;;14.98;5.20;;;6.30;46.30;;;;;;5069307;28;19965;-66
2022/01/03 10:21:41;;;;;;;13.88;4.57;;;6.20;46.10;;;;;;5044085;28;20479;-68
2022/01/03 10:24:08;;;;;;;17.95;5.38;;;6.10;46.30;;;;;;5050992;28;20428;-67
2022/01/03 10:26:37;;;;;;;13.57;5.78;;;6.10;46.50;;;;;;5049708;28;20612;-66
2022/01/03 10:29:15;;;;;;;11.90;5.60;;;6.10;46.20;;;;;;5050314;28;20099;-68
2022/01/03 10:31:44;;;;;;;19.67;6.50;;;6.10;46.50;;;;;;5068009;28;20077;-66
2022/01/03 10:34:13;;;;;;;13.85;5.80;;;6.10;46.20;;;;;;5067808;28;20081;-66
2022/01/03 10:36:42;;;;;;;19.88;5.85;;;6.10;46.40;;;;;;5047699;28;20073;-66
2022/01/03 10:39:13;;;;;;;15.57;6.63;;;6.10;46.20;;;;;;5068121;28;20077;-66
2022/01/03 10:41:39;;;;;;;15.13;6.35;;;6.10;46.10;;;;;;5033794;28;20077;-67
2022/01/03 10:44:06;;;;;;;19.70;6.90;;;6.10;45.80;;;;;;5068777;28;20083;-67
2022/01/03 10:46:33;;;;;;;;;;;6.10;45.80;;;;;;5050131;28;20077;-67
2022/01/03 10:49:26;;;;;;;13.07;5.80;;;6.20;63.70;;;;;;5051245;28;19961;-65
2022/01/03 10:52:09;;;;;;;11.07;4.38;;;6.20;64.90;;;;;;5062108;28;20088;-67
2022/01/03 10:54:35;;;;;;;15.00;4.95;;;6.00;44.80;;;;;;5050466;28;20081;-65
2022/01/03 10:57:01;;;;;;;;;;;6.00;43.90;;;;;;5027049;28;20093;-66
2022/01/03 10:59:30;;;;;;;17.48;4.88;;;6.40;64.10;;;;;;5050367;28;19960;-65
2022/01/03 11:02:01;;;;;;;7.80;4.18;;;5.80;46.80;;;;;;5050365;28;20081;-66
2022/01/03 11:04:58;;;;;;;15.80;4.40;;;6.00;44.10;;;;;;5046310;28;20096;-68
2022/01/03 11:13:16;;;;;;;15.85;4.25;;;5.80;43.50;;;;;;5071841;28;20490;-64
2022/01/03 11:15:50;;;;;;;11.18;3.47;;;6.20;53.60;;;;;;5070652;28;20065;-65
2022/01/03 11:18:21;;;;;;;11.02;3.60;;;5.60;48.00;;;;;;5071295;28;20150;-67
2022/01/03 11:21:01;;;;;;;17.92;3.85;;;5.80;47.70;;;;;;5054223;28;20096;-64
2022/01/03 11:23:28;;;;;;;8.30;2.80;;;5.80;44.60;;;;;;5052103;28;20528;-66
2022/01/03 11:25:54;;;;;;;;;;;5.80;44.80;;;;;;5054624;28;20494;-66
2022/01/03 11:28:26;;;;;;;9.52;3.38;;;5.80;44.80;;;;;;5072085;28;20058;-67
2022/01/03 11:30:53;;;;;;;6.63;2.92;;;5.70;44.60;;;;;;5036896;28;20092;-66
2022/01/03 11:33:20;;;;;;;8.35;3.10;;;5.70;44.50;;;;;;5053875;28;20069;-66
2022/01/03 11:35:52;;;;;;;6.55;3.10;;;5.70;44.90;;;;;;5053278;28;20077;-66
2022/01/03 11:38:23;;;;;;;11.25;4.03;;;5.70;45.00;;;;;;5052329;28;20069;-66
2022/01/03 11:40:50;;;;;;;11.15;4.00;;;5.70;45.70;;;;;;5052588;28;20091;-67
2022/01/03 11:43:17;;;;;;;15.98;4.20;;;5.70;46.50;;;;;;5070420;28;20100;-66
2022/01/03 11:45:44;;;;;;;10.43;3.85;;;5.60;46.30;;;;;;5052806;28;20091;-66
2022/01/03 11:48:12;;;;;;;11.85;4.47;;;5.60;46.20;;;;;;5070626;28;20092;-68
2022/01/03 11:50:40;;;;;;;11.15;4.35;;;5.50;45.70;;;;;;5050227;28;20136;-67
2022/01/03 11:53:08;;;;;;;10.88;4.35;;;5.50;45.30;;;;;;5052230;28;20077;-67
2022/01/03 11:55:36;;;;;;;12.27;4.63;;;5.40;45.40;;;;;;5032885;28;20485;-66
2022/01/03 12:03:38;;;;;;;14.00;4.97;;;5.50;45.00;;;;;;5069665;28;20131;-67
2022/01/03 12:06:07;;;;;;;12.45;5.40;;;5.50;45.00;;;;;;5053501;28;20437;-66
2022/01/03 12:08:36;;;;;;;12.25;4.53;;;5.60;45.00;;;;;;5053251;28;20075;-66
2022/01/03 12:11:22;;;;;;;13.27;5.07;;;5.50;44.90;;;;;;5052692;28;20073;-66
2022/01/03 12:13:53;;;;;;;10.82;4.95;;;5.40;44.30;;;;;;5068245;28;20524;-68
2022/01/03 12:16:38;;;;;;;13.98;5.50;;;6.20;44.90;;;;;;5050386;28;20112;-68
2022/01/03 12:19:10;;;;;;;15.70;5.10;;;;;;;;;;5052915;28;20080;-68
2022/01/03 12:21:53;;;;;;;18.50;4.93;;;6.20;52.60;;;;;;5069212;28;20478;-67
2022/01/03 12:24:42;;;;;;;20.52;5.47;;;5.20;48.80;;;;;;5052139;28;20115;-67
2022/01/03 12:27:16;;;;;;;14.38;4.78;;;5.60;64.20;;;;;;5052292;28;20092;-66
2022/01/03 12:29:57;;;;;;;12.70;4.82;;;5.20;84.30;;;;;;5051438;28;20077;-67
2022/01/03 12:32:32;;;;;;;20.50;5.70;;;5.30;43.70;;;;;;5048436;28;20123;-67
2022/01/03 12:35:10;;;;;;;11.40;4.78;;;5.30;45.40;;;;;;5052716;28;20104;-66
2022/01/03 12:37:42;;;;;;;12.15;4.57;;;5.30;66.40;;;;;;5070989;28;20500;-65
2022/01/03 12:40:13;;;;;;;7.68;3.85;;;5.00;73.60;;;;;;5053036;28;20162;-65
2022/01/03 12:42:48;;;;;;;16.33;3.78;;;5.20;84.30;;;;;;5051866;28;20516;-66
2022/01/03 12:45:39;;;;;;;12.30;4.78;;;5.30;42.90;;;;;;5056078;28;20102;-66
2022/01/03 12:48:11;;;;;;;9.10;3.90;;;5.40;45.80;;;;;;5045705;28;20077;-66
2022/01/03 12:50:53;;;;;;;10.07;3.50;;;5.50;79.30;;;;;;5053000;28;20079;-66
2022/01/03 12:53:28;;;;;;;7.32;3.88;;;5.30;51.40;;;;;;5052423;28;20065;-65
2022/01/03 12:55:56;;;;;;;10.15;4.30;;;5.30;42.30;;;;;;5050008;28;20183;-66
2022/01/03 12:58:22;;;;;;;7.47;4.20;;;6.00;78.10;;;;;;5052243;28;20563;-66
2022/01/03 13:00:50;;;;;;;;;;;5.40;43.80;;;;;;5047971;28;20084;-67
2022/01/03 13:03:24;;;;;;;10.55;4.95;;;5.60;63.40;;;;;;5052272;28;20017;-68
2022/01/03 13:06:10;;;;;;;12.93;5.40;;;5.50;43.80;;;;;;5051425;28;20173;-66
2022/01/03 13:08:40;;;;;;;10.70;5.32;;;5.30;52.50;;;;;;5070101;28;20160;-67
2022/01/03 13:11:09;;;;;;;12.30;5.57;;;6.60;52.20;;;;;;5069524;28;20430;-65
2022/01/03 13:13:37;;;;;;;19.20;7.07;;;5.20;87.90;;;;;;5027990;28;20073;-67
2022/01/03 13:16:20;;;;;;;12.90;6.32;;;5.50;86.00;;;;;;5068927;28;20552;-66
2022/01/03 13:18:48;;;;;;;12.75;7.68;;;4.70;42.90;;;;;;5043769;28;20084;-66
2022/01/03 13:21:16;;;;;;;20.20;7.60;;;5.20;43.70;;;;;;5050887;28;20487;-65
2022/01/03 13:24:09;;;;;;;14.27;7.65;;;5.20;67.50;;;;;;5051539;28;20564;-65
2022/01/03 13:26:50;;;;;;;20.65;7.80;;;5.00;61.90;;;;;;5050268;28;20544;-66
2022/01/03 13:29:16;;;;;;;15.55;7.55;;;5.50;67.40;;;;;;5050667;28;20461;-68